• Join FlightAware (Why Join?)
  • Login
  • US Flag 
11:20PM EDT


 

Airport Tracker/Info


-or-


 

Live Flight TrackerFlight Track Log ✈ IGO482 ✈ 25-Apr-2013 ✈ VABO / BDQ - VIDP / DEL

Flight Track Log - Related Links

Times and Time Zones

All times are in EDT time to prevent confusion due to time zone crossing. See the IGO482 flight status page for this flight to view local times or setup timezone preferences in your user account.

Time Position Orientation Groundspeed Altitude Reporting Facility
EDT Latitude Longitude Course Direction KTS MPH feet Rate Location/Type
12:58AM 26.6780 75.1710 20° North 453 521 37,000  Level FlightAware
12:59AM 26.7870 75.2170 21° North 453 521 37,000  Level FlightAware
01:00AM 26.8830 75.2580 21° North 454 522 37,000  Level FlightAware
01:01AM 26.9550 75.2870 20° North 454 522 37,000  Level FlightAware
01:01AM 27.0220 75.3150 20° North 454 522 37,000  Level FlightAware
01:02AM 27.1060 75.3490 20° North 454 522 37,000 60 Level FlightAware
01:03AM 27.2230 75.4200 28° Northeast 466 536 37,100  Climbing FlightAware
01:04AM 27.2880 75.4780 38° Northeast 471 542 37,000 -300 Descending FlightAware
01:04AM 27.3490 75.5450 44° Northeast 467 537 36,700 -1,440 Descending FlightAware
01:05AM 27.4130 75.6150 44° Northeast 471 542 35,000 -2,640 Descending FlightAware
01:06AM 27.4790 75.6880 44° Northeast 475 547 33,200 -3,000 Descending FlightAware
01:06AM 27.5640 75.7820 44° Northeast 482 555 30,800 -2,580 Descending FlightAware
01:07AM 27.6340 75.8590 44° Northeast 467 537 29,400 -2,100 Descending FlightAware
01:08AM 27.6820 75.9060 41° Northeast 473 544 27,900 -2,280 Descending FlightAware
01:08AM 27.7490 75.9720 41° Northeast 465 535 26,400 -1,920 Descending FlightAware
01:09AM 27.8230 76.0430 40° Northeast 441 507 25,200 -1,920 Descending FlightAware
01:10AM 27.8820 76.1000 40° Northeast 434 499 23,700 -2,340 Descending FlightAware
01:11AM 27.9440 76.1600 41° Northeast 429 494 22,100 -2,400 Descending FlightAware
01:11AM 28.0080 76.2230 41° Northeast 425 489 20,500 -2,220 Descending FlightAware
01:12AM 28.0640 76.2770 40° Northeast 413 475 19,200 -1,980 Descending FlightAware
01:13AM 28.1370 76.3480 41° Northeast 399 459 17,600 -1,680 Descending FlightAware
01:13AM 28.1880 76.3980 41° Northeast 380 437 16,700 -1,500 Descending FlightAware
01:14AM 28.2380 76.4550 45° Northeast 368 423 15,600 -1,500 Descending FlightAware
01:15AM 28.2770 76.5280 59° Northeast 353 406 14,600 -1,200 Descending FlightAware
01:15AM 28.3080 76.5880 60° Northeast 353 406 13,900 -1,020 Descending FlightAware
01:16AM 28.3450 76.6610 60° Northeast 347 399 13,200 -780 Descending FlightAware
01:17AM 28.3740 76.7300 64° Northeast 348 400 12,800 -660 Descending FlightAware
01:18AM 28.4080 76.8140 65° Northeast 345 397 12,200 -720 Descending FlightAware
01:19AM 28.4430 76.8990 65° Northeast 336 387 11,600 -780 Descending FlightAware
01:19AM 28.4620 76.9460 65° Northeast 315 362 11,200 -840 Descending FlightAware
01:19AM 28.4670 76.9720 78° East 311 358 10,900 -1,560 Descending FlightAware
01:20AM 28.4590 77.0190 101° East 305 351 10,300 -1,620 Descending FlightAware
01:20AM 28.4510 77.0560 104° East 303 349 9,700 -1,440 Descending FlightAware
01:21AM 28.4400 77.1040 105° East 300 345 9,000 -1,440 Descending FlightAware
01:21AM 28.4320 77.1420 103° East 298 343 8,400 -1,020 Descending FlightAware
01:22AM 28.4220 77.1870 104° East 280 322 8,100 -600 Descending FlightAware
01:22AM 28.4140 77.2270 103° East 264 304 7,800 -900 Descending FlightAware
01:22AM 28.4070 77.2590 104° East 250 288 7,300 -1,800 Descending FlightAware
01:23AM 28.4010 77.2980 100° East 244 281 6,200 -2,160 Descending FlightAware
01:23AM 28.4100 77.3160 60° Northeast 237 273 5,700 -2,160 Descending FlightAware
01:23AM 28.4180 77.3230 38° Northeast 234 269 5,300 -2,160 Descending FlightAware
01:24AM 28.4330 77.3290 19° North 234 269 4,800 -1,920 Descending FlightAware
01:24AM 28.4620 77.3380 15° North 241 277 3,900 -1,320 Descending FlightAware
01:25AM 28.4900 77.3230 335° Northwest 228 262 3,600 -660 Descending FlightAware
01:25AM 28.5110 77.3000 316° Northwest 213 245 3,300 -540 Descending FlightAware
01:25AM 28.5190 77.2870 305° West 204 235 3,200 -300 Descending FlightAware
01:26AM 28.5260 77.2630 288° West 177 204 3,100 -600 Descending FlightAware
01:26AM 28.5320 77.2360 284° West 158 182 2,700 -780 Descending FlightAware
01:27AM 28.5370 77.2180 288° West 154 177 2,400 -660 Descending FlightAware
01:27AM 28.5420 77.1940 283° West 149 171 2,100 -720 Descending FlightAware
01:27AM 28.5450 77.1820 286° West 146 168 1,900 -840 Descending FlightAware
01:28AM 28.5500 77.1610 285° West 144 166 1,500 -780 Descending FlightAware
01:28AM 28.5540 77.1430 284° West 145 167 1,200 -660 Descending FlightAware
01:29AM 28.5590 77.1190 283° West 145 167 800 -600 Descending FlightAware
01:39AM 28.5665 77.1031 245° Southwest  Level Estimated
01:40AM 28.5665 77.1031 270° West  Level Estimated
01:41AM 28.5665 77.1031 270° West  Level Estimated
01:42AM 28.5665 77.1031 270° West  Level Estimated